Time;durP1;ratioP1;P1;durP2;ratioP2;P2;SDS_P1;SDS_P2;PMS_P1;PMS_P2;Temp;Humidity;BMP_temperature;BMP_pressure;BME280_temperature;BME280_humidity;BME280_pressure;Samples;Min_cycle;Max_cycle;Signal;HPM_P1;HPM_P2
2023/03/20 00:02:10;;;;;;;15.93;7.40;;;;;;;;;;5069531;28;20040;-57
2023/03/20 00:04:36;;;;;;;13.80;7.20;;;;;;;;;;5070253;28;20398;-57
2023/03/20 00:07:02;;;;;;;13.75;7.72;;;;;;;;;;5069783;28;20047;-56
2023/03/20 00:09:28;;;;;;;13.55;6.95;;;;;;;;;;5069297;28;20123;-57
2023/03/20 00:11:54;;;;;;;13.98;7.35;;;;;;;;;;5070023;28;20123;-56
2023/03/20 00:14:23;;;;;;;12.30;6.70;;;;;;;;;;5069988;28;20040;-58
2023/03/20 00:16:49;;;;;;;15.10;7.63;;;;;;;;;;5069069;28;20052;-57
2023/03/20 00:19:18;;;;;;;15.07;8.02;;;;;;;;;;5069918;28;20036;-57
2023/03/20 00:21:46;;;;;;;14.82;7.35;;;;;;;;;;5069500;28;20053;-57
2023/03/20 00:24:12;;;;;;;18.25;7.85;;;;;;;;;;5075237;28;20048;-57
2023/03/20 00:26:39;;;;;;;17.13;7.82;;;;;;;;;;5073073;28;20048;-57
2023/03/20 00:29:06;;;;;;;14.68;7.43;;;;;;;;;;5069585;28;20040;-56
2023/03/20 00:31:36;;;;;;;14.57;7.88;;;;;;;;;;5068794;28;20151;-57
2023/03/20 00:34:06;;;;;;;15.18;7.03;;;;;;;;;;5069520;28;20105;-57
2023/03/20 00:36:32;;;;;;;14.43;7.47;;;;;;;;;;5069501;28;20040;-57
2023/03/20 00:38:58;;;;;;;16.60;7.50;;;;;;;;;;5068730;28;20132;-57
2023/03/20 00:41:27;;;;;;;16.27;7.75;;;;;;;;;;5069519;28;20128;-58
2023/03/20 00:43:56;;;;;;;15.23;7.78;;;;;;;;;;5069777;28;20040;-56
2023/03/20 00:46:23;;;;;;;17.35;7.57;;;;;;;;;;5068316;28;20040;-56
2023/03/20 00:48:49;;;;;;;16.52;8.35;;;;;;;;;;5085605;28;20055;-56
2023/03/20 00:51:15;;;;;;;18.35;8.00;;;;;;;;;;5069649;28;20099;-56
2023/03/20 00:53:41;;;;;;;19.00;8.25;;;;;;;;;;5068930;28;20051;-58
2023/03/20 00:56:22;;;;;;;19.05;8.18;;;;;;;;;;5068877;28;20043;-58
2023/03/20 00:58:49;;;;;;;17.50;8.30;;;;;;;;;;5069302;28;20127;-57
2023/03/20 01:01:15;;;;;;;19.20;8.05;;;;;;;;;;5068603;28;20041;-58
2023/03/20 01:03:41;;;;;;;24.35;8.40;;;;;;;;;;5069245;28;20042;-56
2023/03/20 01:06:08;;;;;;;18.45;7.55;;;;;;;;;;5069111;28;20052;-56
2023/03/20 01:08:34;;;;;;;20.40;8.23;;;;;;;;;;5068524;28;20049;-56
2023/03/20 01:11:00;;;;;;;18.77;7.47;;;;;;;;;;5069181;28;20044;-56
2023/03/20 01:13:28;;;;;;;21.88;7.60;;;;;;;;;;5069218;28;20039;-57
2023/03/20 01:15:56;;;;;;;21.05;7.65;;;;;;;;;;5072429;28;20039;-57
2023/03/20 01:18:23;;;;;;;20.48;7.47;;;;;;;;;;5076434;28;20072;-58
2023/03/20 01:20:51;;;;;;;17.73;6.95;;;;;;;;;;5069209;28;20044;-56
2023/03/20 01:23:18;;;;;;;14.35;7.05;;;;;;;;;;5068347;28;20058;-58
2023/03/20 01:25:44;;;;;;;11.68;6.00;;;;;;;;;;5087665;28;20467;-56
2023/03/20 01:28:17;;;;;;;15.27;6.20;;;;;;;;;;5089120;28;20051;-57
2023/03/20 01:30:44;;;;;;;14.38;5.90;;;;;;;;;;5073303;28;20040;-58
2023/03/20 01:33:15;;;;;;;14.65;6.25;;;;;;;;;;5069031;28;20044;-58
2023/03/20 01:35:41;;;;;;;20.13;6.40;;;;;;;;;;5069267;28;20032;-58
2023/03/20 01:38:33;;;;;;;16.15;6.30;;;;;;;;;;5078194;28;20089;-58
2023/03/20 01:41:20;;;;;;;12.55;5.80;;;;;;;;;;5085063;28;20055;-58
2023/03/20 01:43:46;;;;;;;16.88;5.68;;;;;;;;;;5068678;28;20044;-57
2023/03/20 01:46:20;;;;;;;17.02;6.20;;;;;;;;;;5068301;28;20037;-56
2023/03/20 01:48:49;;;;;;;15.43;6.45;;;;;;;;;;5084519;28;20043;-56
2023/03/20 01:51:20;;;;;;;13.30;6.63;;;;;;;;;;5070055;28;20045;-57
2023/03/20 01:53:47;;;;;;;15.25;6.85;;;;;;;;;;5068433;28;20680;-57
2023/03/20 01:56:15;;;;;;;17.65;8.00;;;;;;;;;;5069110;28;20123;-58
2023/03/20 01:58:44;;;;;;;16.88;7.72;;;;;;;;;;5068622;28;20306;-57
2023/03/20 02:01:12;;;;;;;14.85;8.05;;;;;;;;;;5068120;28;20048;-56
2023/03/20 02:03:38;;;;;;;16.88;8.63;;;;;;;;;;5068928;28;20040;-57
2023/03/20 02:06:05;;;;;;;21.77;10.00;;;;;;;;;;5069035;28;20075;-58
2023/03/20 02:08:32;;;;;;;19.17;9.45;;;;;;;;;;5071146;28;20040;-57
2023/03/20 02:11:00;;;;;;;20.90;8.85;;;;;;;;;;5072167;28;20152;-57
2023/03/20 02:13:27;;;;;;;19.50;9.77;;;;;;;;;;5072155;28;20047;-57
2023/03/20 02:16:07;;;;;;;22.23;10.20;;;;;;;;;;5071361;28;20052;-58
2023/03/20 02:18:33;;;;;;;24.45;9.82;;;;;;;;;;5071916;28;20127;-57
2023/03/20 02:21:02;;;;;;;22.08;11.02;;;;;;;;;;5072166;28;20559;-57
2023/03/20 02:23:47;;;;;;;18.23;10.60;;;;;;;;;;5070874;28;20143;-57
2023/03/20 02:26:21;;;;;;;22.85;10.93;;;;;;;;;;5073756;28;20402;-56
2023/03/20 02:29:11;;;;;;;23.55;10.52;;;;;;;;;;5071596;28;20044;-56
2023/03/20 02:31:42;;;;;;;22.00;10.68;;;;;;;;;;5071192;28;20403;-57
2023/03/20 02:34:28;;;;;;;26.83;10.32;;;;;;;;;;5071864;28;20479;-56
2023/03/20 02:37:05;;;;;;;17.98;9.57;;;;;;;;;;5072068;28;20040;-57
2023/03/20 02:39:42;;;;;;;28.15;9.05;;;;;;;;;;5070611;28;20072;-58
2023/03/20 02:42:14;;;;;;;22.05;9.80;;;;;;;;;;5071639;28;20147;-57
2023/03/20 02:44:52;;;;;;;22.42;9.73;;;;;;;;;;5071276;28;20561;-56
2023/03/20 02:47:25;;;;;;;23.50;9.80;;;;;;;;;;5075106;28;20428;-56
2023/03/20 02:49:51;;;;;;;20.75;10.02;;;;;;;;;;5085295;28;20044;-57
2023/03/20 02:52:23;;;;;;;25.35;9.82;;;;;;;;;;5071130;28;20048;-56
2023/03/20 02:54:52;;;;;;;19.48;9.75;;;;;;;;;;5071037;28;20049;-56
2023/03/20 02:57:24;;;;;;;26.20;10.68;;;;;;;;;;5071401;28;20044;-56
2023/03/20 03:00:01;;;;;;;19.70;10.10;;;;;;;;;;5070663;28;20040;-57
2023/03/20 03:02:27;;;;;;;29.77;10.30;;;;;;;;;;5071280;28;20040;-57
2023/03/20 03:04:56;;;;;;;17.55;9.80;;;;;;;;;;5071488;28;20495;-57
2023/03/20 03:07:25;;;;;;;19.92;10.23;;;;;;;;;;5070860;28;20536;-57
2023/03/20 03:10:21;;;;;;;22.15;9.80;;;;;;;;;;5071117;28;20067;-57
2023/03/20 03:12:49;;;;;;;19.60;10.10;;;;;;;;;;5058083;28;20383;-58
2023/03/20 03:15:25;;;;;;;24.10;10.73;;;;;;;;;;5070201;28;20048;-57
2023/03/20 03:17:52;;;;;;;19.05;10.25;;;;;;;;;;5070548;28;20041;-57
2023/03/20 03:20:31;;;;;;;19.10;10.05;;;;;;;;;;5069653;28;20110;-57
2023/03/20 03:22:57;;;;;;;25.73;10.75;;;;;;;;;;5069786;28;20091;-57
2023/03/20 03:25:25;;;;;;;20.52;10.52;;;;;;;;;;5068691;28;20429;-57
2023/03/20 03:28:01;;;;;;;21.60;11.10;;;;;;;;;;5071032;28;20084;-56
2023/03/20 03:30:28;;;;;;;23.25;10.65;;;;;;;;;;5069879;28;20047;-57
2023/03/20 03:32:58;;;;;;;24.92;10.88;;;;;;;;;;5070588;28;20128;-56
2023/03/20 03:35:24;;;;;;;24.00;11.48;;;;;;;;;;5070260;28;20051;-57
2023/03/20 03:38:09;;;;;;;22.48;11.15;;;;;;;;;;5069705;28;20040;-56
2023/03/20 03:40:38;;;;;;;22.95;10.73;;;;;;;;;;5070362;28;20044;-57
2023/03/20 03:43:27;;;;;;;22.92;10.20;;;;;;;;;;5070695;28;20090;-57
2023/03/20 03:45:56;;;;;;;22.27;10.55;;;;;;;;;;5073157;28;20040;-57
2023/03/20 03:48:28;;;;;;;19.60;10.38;;;;;;;;;;5090897;28;20065;-57
2023/03/20 03:50:55;;;;;;;16.42;9.35;;;;;;;;;;5078312;28;20048;-57
2023/03/20 03:53:31;;;;;;;20.05;9.68;;;;;;;;;;5070038;28;20033;-56
2023/03/20 03:56:00;;;;;;;18.50;9.20;;;;;;;;;;5090603;28;20042;-57
2023/03/20 03:58:30;;;;;;;21.48;8.80;;;;;;;;;;5083050;28;20036;-56
2023/03/20 04:00:58;;;;;;;15.13;8.05;;;;;;;;;;5069006;28;20041;-56
2023/03/20 04:03:28;;;;;;;14.85;7.82;;;;;;;;;;5070099;28;20130;-56
2023/03/20 04:05:56;;;;;;;16.05;8.48;;;;;;;;;;5069763;28;20126;-57
2023/03/20 04:08:22;;;;;;;15.13;8.02;;;;;;;;;;5069574;28;20040;-57
2023/03/20 04:10:48;;;;;;;14.43;7.45;;;;;;;;;;5068325;28;20084;-55
2023/03/20 04:13:15;;;;;;;13.90;7.30;;;;;;;;;;5070122;28;20347;-56
2023/03/20 04:15:41;;;;;;;14.25;6.93;;;;;;;;;;5069319;28;20043;-56
2023/03/20 04:18:07;;;;;;;17.55;7.63;;;;;;;;;;5069976;28;20040;-57
2023/03/20 04:20:33;;;;;;;15.20;7.10;;;;;;;;;;5069605;28;20033;-57
2023/03/20 04:23:00;;;;;;;14.45;6.97;;;;;;;;;;5068937;28;20533;-57
2023/03/20 04:25:27;;;;;;;11.73;6.43;;;;;;;;;;5081824;28;20045;-57
2023/03/20 04:27:53;;;;;;;11.73;6.20;;;;;;;;;;5069599;28;20044;-58
2023/03/20 04:30:19;;;;;;;12.23;6.05;;;;;;;;;;5073181;28;20046;-57
2023/03/20 04:32:45;;;;;;;12.98;6.20;;;;;;;;;;5089929;28;20489;-57
2023/03/20 04:35:10;;;;;;;11.30;6.55;;;;;;;;;;5077193;28;20044;-56
2023/03/20 04:37:36;;;;;;;11.05;5.97;;;;;;;;;;5069242;28;20047;-57
2023/03/20 04:40:03;;;;;;;17.02;6.50;;;;;;;;;;5069110;28;20507;-56
2023/03/20 04:42:29;;;;;;;13.27;6.18;;;;;;;;;;5069561;28;20056;-56
2023/03/20 04:44:55;;;;;;;14.80;6.50;;;;;;;;;;5068877;28;20132;-57
2023/03/20 04:47:21;;;;;;;10.40;5.95;;;;;;;;;;5083190;28;20546;-56
2023/03/20 04:49:47;;;;;;;12.70;6.88;;;;;;;;;;5089083;28;20093;-57
2023/03/20 04:52:13;;;;;;;13.70;6.63;;;;;;;;;;5068768;28;20133;-57
2023/03/20 04:54:39;;;;;;;19.25;7.30;;;;;;;;;;5077220;28;20052;-56
2023/03/20 04:57:05;;;;;;;14.25;6.53;;;;;;;;;;5089916;28;20036;-57
2023/03/20 04:59:31;;;;;;;17.27;6.70;;;;;;;;;;5073629;28;20085;-57
2023/03/20 05:01:57;;;;;;;20.77;7.95;;;;;;;;;;5068904;28;20060;-58
2023/03/20 05:04:23;;;;;;;15.85;7.38;;;;;;;;;;5069594;28;20421;-58
2023/03/20 05:06:49;;;;;;;14.38;7.57;;;;;;;;;;5068580;28;20063;-57
2023/03/20 05:09:15;;;;;;;17.02;8.10;;;;;;;;;;5069438;28;20040;-56
2023/03/20 05:11:42;;;;;;;17.55;7.70;;;;;;;;;;5068898;28;20421;-57
2023/03/20 05:14:08;;;;;;;15.70;8.27;;;;;;;;;;5068578;28;20497;-57
2023/03/20 05:16:34;;;;;;;13.82;8.25;;;;;;;;;;5069250;28;20044;-56
2023/03/20 05:19:00;;;;;;;14.90;8.35;;;;;;;;;;5069428;28;20063;-58
2023/03/20 05:21:26;;;;;;;14.63;8.05;;;;;;;;;;5068608;28;20433;-57
2023/03/20 05:23:52;;;;;;;18.77;9.10;;;;;;;;;;5072125;28;20051;-57
2023/03/20 05:26:18;;;;;;;19.58;8.45;;;;;;;;;;5077282;28;20491;-57
2023/03/20 05:28:46;;;;;;;16.33;8.25;;;;;;;;;;5068510;28;20060;-57
2023/03/20 05:31:12;;;;;;;18.85;8.98;;;;;;;;;;5068344;28;20075;-57
2023/03/20 05:33:39;;;;;;;17.58;9.05;;;;;;;;;;5069740;28;20044;-57
2023/03/20 05:36:06;;;;;;;19.25;8.70;;;;;;;;;;5069966;28;20053;-57
2023/03/20 05:38:32;;;;;;;14.02;8.70;;;;;;;;;;5070416;28;20044;-58
2023/03/20 05:40:58;;;;;;;19.15;9.15;;;;;;;;;;5070854;28;20051;-58
2023/03/20 05:43:25;;;;;;;17.17;9.32;;;;;;;;;;5086151;28;20044;-58
2023/03/20 05:45:52;;;;;;;14.18;7.78;;;;;;;;;;5094488;28;20093;-57
2023/03/20 05:48:17;;;;;;;17.98;9.02;;;;;;;;;;5094676;28;20036;-58
2023/03/20 05:50:43;;;;;;;16.58;9.07;;;;;;;;;;5086794;28;20479;-56
2023/03/20 05:53:09;;;;;;;18.42;8.68;;;;;;;;;;5074041;28;20036;-57
2023/03/20 05:55:35;;;;;;;18.85;9.35;;;;;;;;;;5073963;28;20375;-56
2023/03/20 05:58:01;;;;;;;19.38;9.32;;;;;;;;;;5073663;28;20036;-56
2023/03/20 06:00:27;;;;;;;16.77;8.85;;;;;;;;;;5074347;28;20179;-56
2023/03/20 06:02:55;;;;;;;18.35;8.63;;;;;;;;;;5073894;28;20044;-57
2023/03/20 06:05:21;;;;;;;17.50;9.43;;;;;;;;;;5059860;28;20044;-58
2023/03/20 06:07:47;;;;;;;19.00;9.82;;;;;;;;;;5079137;28;20127;-57
2023/03/20 06:10:13;;;;;;;18.33;9.70;;;;;;;;;;5075681;28;20087;-56
2023/03/20 06:12:39;;;;;;;13.32;8.50;;;;;;;;;;5073363;28;20557;-56
2023/03/20 06:15:06;;;;;;;14.10;8.30;;;;;;;;;;5074244;28;20386;-57
2023/03/20 06:17:32;;;;;;;20.88;9.80;;;;;;;;;;5073800;28;20116;-57
2023/03/20 06:19:58;;;;;;;15.68;8.55;;;;;;;;;;5073261;28;20178;-57
2023/03/20 06:22:24;;;;;;;17.48;9.13;;;;;;;;;;5072949;28;20060;-57
2023/03/20 06:24:50;;;;;;;18.73;10.05;;;;;;;;;;5084799;28;20051;-56
2023/03/20 06:27:16;;;;;;;16.77;9.10;;;;;;;;;;5072921;28;20044;-55
2023/03/20 06:29:42;;;;;;;20.02;9.90;;;;;;;;;;5073357;28;20060;-55
2023/03/20 06:32:11;;;;;;;16.95;9.68;;;;;;;;;;5073218;28;20036;-54
2023/03/20 06:34:37;;;;;;;15.35;9.07;;;;;;;;;;5072865;28;20395;-56
2023/03/20 06:37:03;;;;;;;18.65;9.73;;;;;;;;;;5073428;28;20115;-56
2023/03/20 06:39:29;;;;;;;18.15;9.60;;;;;;;;;;5073091;28;20136;-54
2023/03/20 06:41:55;;;;;;;17.55;9.48;;;;;;;;;;5072614;28;20504;-57
2023/03/20 06:44:21;;;;;;;20.85;9.63;;;;;;;;;;5073590;28;20484;-58
2023/03/20 06:46:47;;;;;;;16.52;9.90;;;;;;;;;;5081229;28;20044;-58
2023/03/20 06:49:13;;;;;;;18.08;9.23;;;;;;;;;;5091568;28;20044;-58
2023/03/20 06:51:39;;;;;;;19.92;9.27;;;;;;;;;;5085725;28;20048;-57
2023/03/20 06:54:06;;;;;;;18.33;9.13;;;;;;;;;;5084796;28;20118;-57
2023/03/20 06:56:32;;;;;;;18.55;8.98;;;;;;;;;;5072540;28;20040;-57
2023/03/20 06:58:58;;;;;;;20.67;9.02;;;;;;;;;;5080320;28;20041;-58
2023/03/20 07:01:24;;;;;;;16.20;9.80;;;;;;;;;;5072774;28;20200;-57
2023/03/20 07:03:50;;;;;;;20.15;10.68;;;;;;;;;;5085703;28;20076;-57
2023/03/20 07:06:17;;;;;;;21.80;9.70;;;;;;;;;;5092512;28;20501;-56
2023/03/20 07:08:44;;;;;;;18.52;9.63;;;;;;;;;;5072817;28;20044;-57
2023/03/20 07:11:10;;;;;;;18.48;9.75;;;;;;;;;;5080052;28;20094;-57
2023/03/20 07:13:36;;;;;;;19.92;9.27;;;;;;;;;;5072796;28;20040;-57
2023/03/20 07:16:03;;;;;;;21.48;9.32;;;;;;;;;;5072774;28;20115;-57
2023/03/20 07:18:29;;;;;;;17.23;8.85;;;;;;;;;;5072276;28;20040;-57
2023/03/20 07:20:58;;;;;;;17.30;8.65;;;;;;;;;;5072294;28;20044;-58
2023/03/20 07:23:25;;;;;;;19.65;8.77;;;;;;;;;;5088750;28;20063;-57
2023/03/20 07:25:51;;;;;;;19.85;9.68;;;;;;;;;;5081599;28;20041;-60
2023/03/20 07:28:17;;;;;;;20.88;10.35;;;;;;;;;;5072097;28;20048;-60
2023/03/20 07:30:43;;;;;;;18.35;9.60;;;;;;;;;;5072138;28;20048;-59
2023/03/20 07:33:09;;;;;;;23.90;9.77;;;;;;;;;;5085799;28;20035;-60
2023/03/20 07:35:35;;;;;;;17.83;9.27;;;;;;;;;;5073727;28;20443;-59
2023/03/20 07:38:02;;;;;;;18.55;9.93;;;;;;;;;;5086923;28;20091;-59
2023/03/20 07:40:28;;;;;;;19.38;9.40;;;;;;;;;;5071313;28;20045;-61
2023/03/20 07:42:54;;;;;;;20.60;9.55;;;;;;;;;;5074597;28;20094;-67
2023/03/20 07:45:20;;;;;;;20.13;9.55;;;;;;;;;;5051331;28;20808;-63
2023/03/20 07:47:47;;;;;;;18.65;9.43;;;;;;;;;;5059186;28;20032;-65
2023/03/20 07:50:13;;;;;;;21.75;10.75;;;;;;;;;;5070172;28;20108;-65
2023/03/20 07:52:39;;;;;;;18.25;10.10;;;;;;;;;;5082250;28;20040;-65
2023/03/20 07:55:06;;;;;;;29.45;10.75;;;;;;;;;;5071420;28;20386;-62
2023/03/20 07:57:33;;;;;;;22.45;10.73;;;;;;;;;;5070139;28;20259;-61
2023/03/20 07:59:59;;;;;;;20.83;10.20;;;;;;;;;;5088611;28;20063;-61
2023/03/20 08:02:25;;;;;;;18.30;9.52;;;;;;;;;;5080427;28;20037;-62
2023/03/20 08:04:51;;;;;;;19.00;9.02;;;;;;;;;;5074381;28;20051;-62
2023/03/20 08:07:17;;;;;;;21.67;9.95;;;;;;;;;;5068768;28;20150;-62
2023/03/20 08:09:43;;;;;;;24.13;10.25;;;;;;;;;;5079075;28;20036;-62
2023/03/20 08:12:09;;;;;;;21.17;9.55;;;;;;;;;;5086444;28;20060;-62
2023/03/20 08:14:37;;;;;;;19.98;9.93;;;;;;;;;;5073028;28;20037;-62
2023/03/20 08:17:03;;;;;;;22.35;11.18;;;;;;;;;;5075678;28;20133;-63
2023/03/20 08:19:31;;;;;;;22.27;10.25;;;;;;;;;;5076444;28;20051;-62
2023/03/20 08:21:57;;;;;;;20.38;9.75;;;;;;;;;;5080271;28;20059;-63
2023/03/20 08:24:24;;;;;;;21.90;10.02;;;;;;;;;;5076334;28;20052;-63
2023/03/20 08:26:50;;;;;;;17.50;9.30;;;;;;;;;;5074626;28;20044;-63
2023/03/20 08:29:18;;;;;;;18.42;9.80;;;;;;;;;;5074388;28;20048;-63
2023/03/20 08:31:44;;;;;;;20.92;9.43;;;;;;;;;;5081493;28;20055;-63
2023/03/20 08:34:10;;;;;;;21.55;9.77;;;;;;;;;;5077009;28;20059;-63
2023/03/20 08:36:38;;;;;;;19.40;9.27;;;;;;;;;;5068957;28;20037;-63
2023/03/20 08:39:05;;;;;;;19.33;9.57;;;;;;;;;;5035589;28;20028;-64
2023/03/20 08:41:31;;;;;;;19.75;9.60;;;;;;;;;;5069043;28;20036;-63
2023/03/20 08:43:57;;;;;;;17.63;9.70;;;;;;;;;;5078103;28;20048;-63
2023/03/20 08:46:24;;;;;;;18.33;9.85;;;;;;;;;;5074374;28;20047;-63
2023/03/20 08:48:53;;;;;;;18.73;9.93;;;;;;;;;;5082743;28;20069;-61
2023/03/20 08:51:19;;;;;;;14.48;9.70;;;;;;;;;;5082602;28;20040;-62
2023/03/20 08:53:45;;;;;;;20.95;10.07;;;;;;;;;;5081974;28;20047;-63
2023/03/20 08:56:11;;;;;;;18.42;10.00;;;;;;;;;;5068889;28;20064;-63
2023/03/20 08:58:37;;;;;;;20.02;9.10;;;;;;;;;;5075536;28;20132;-62
2023/03/20 09:01:07;;;;;;;18.38;9.93;;;;;;;;;;5066406;28;20465;-62
2023/03/20 09:03:35;;;;;;;18.55;9.85;;;;;;;;;;5070311;28;20519;-62
2023/03/20 09:06:01;;;;;;;17.85;9.95;;;;;;;;;;4190015;28;10000881;-62
2023/03/20 09:08:27;;;;;;;17.88;9.68;;;;;;;;;;5048474;28;20062;-62
2023/03/20 09:10:53;;;;;;;23.50;9.95;;;;;;;;;;5018710;28;20045;-62
2023/03/20 09:13:21;;;;;;;22.50;10.10;;;;;;;;;;4990911;28;20408;-62
2023/03/20 09:15:47;;;;;;;19.85;9.60;;;;;;;;;;5009517;28;20038;-62
2023/03/20 09:18:14;;;;;;;18.50;8.90;;;;;;;;;;5011999;28;20678;-64
2023/03/20 09:20:40;;;;;;;16.42;8.95;;;;;;;;;;5003849;28;20120;-65
2023/03/20 09:23:06;;;;;;;15.70;8.05;;;;;;;;;;5013119;28;20081;-64
2023/03/20 09:25:32;;;;;;;14.98;8.18;;;;;;;;;;4999372;28;20475;-63
2023/03/20 09:27:58;;;;;;;21.23;9.35;;;;;;;;;;5011962;28;20050;-65
2023/03/20 09:30:24;;;;;;;17.38;8.40;;;;;;;;;;5012495;28;20065;-66
2023/03/20 09:32:51;;;;;;;20.80;8.77;;;;;;;;;;5005288;28;20049;-64
2023/03/20 09:35:17;;;;;;;16.75;8.32;;;;;;;;;;5012543;28;20122;-65
2023/03/20 09:37:44;;;;;;;15.57;8.45;;;;;;;;;;4149369;28;10000859;-64
2023/03/20 09:40:20;;;;;;;15.73;8.30;;;;;;;;;;5050710;28;20052;-63
2023/03/20 09:42:46;;;;;;;19.00;8.57;;;;;;;;;;5052224;28;20052;-63
2023/03/20 09:45:12;;;;;;;17.60;7.65;;;;;;;;;;5046620;28;20048;-64
2023/03/20 09:48:01;;;;;;;16.98;8.50;;;;;;;;;;5051084;28;20115;-65
2023/03/20 09:50:34;;;;;;;16.80;8.43;;;;;;;;;;5017656;28;20061;-64
2023/03/20 09:53:18;;;;;;;15.15;8.13;;;;;;;;;;5047629;28;20836;-64
2023/03/20 09:55:45;;;;;;;16.02;8.77;;;;;;;;;;5046446;28;20079;-64
2023/03/20 09:58:25;;;;;;;14.52;8.32;;;;;;;;;;5051091;28;20065;-64
2023/03/20 10:00:51;;;;;;;15.65;8.82;;;;;;;;;;5051281;28;20045;-64
2023/03/20 10:03:17;;;;;;;18.55;9.68;;;;;;;;;;5033245;28;20511;-66
2023/03/20 10:06:07;;;;;;;19.52;8.73;;;;;;;;;;5046736;28;20107;-64
2023/03/20 10:08:35;;;;;;;21.30;9.68;;;;;;;;;;5047448;28;20053;-64
2023/03/20 10:11:24;;;;;;;23.17;10.00;;;;;;;;;;5046779;28;20041;-67
2023/03/20 10:13:54;;;;;;;22.85;9.60;;;;;;;;;;5019491;28;20088;-67
2023/03/20 10:16:26;;;;;;;20.58;9.30;;;;;;;;;;5050651;28;20049;-66
2023/03/20 10:19:07;;;;;;;16.23;9.02;;;;;;;;;;5051430;28;20045;-64
2023/03/20 10:21:42;;;;;;;15.63;8.52;;;;;;;;;;5050824;28;20041;-65
2023/03/20 10:24:18;;;;;;;18.13;9.25;;;;;;;;;;5049491;28;20049;-67
2023/03/20 10:26:46;;;;;;;18.95;9.45;;;;;;;;;;5049766;28;20502;-65
2023/03/20 10:29:15;;;;;;;18.83;8.38;;;;;;;;;;5032874;28;20594;-65
2023/03/20 10:31:44;;;;;;;14.02;8.95;;;;;;;;;;5050287;28;20052;-65
2023/03/20 10:34:26;;;;;;;18.02;8.93;;;;;;;;;;5050994;28;20467;-65
2023/03/20 10:37:11;;;;;;;14.38;9.65;;;;;;;;;;5033379;28;20130;-64
2023/03/20 10:39:56;;;;;;;20.33;9.85;;;;;;;;;;5050125;28;20683;-65
2023/03/20 10:42:28;;;;;;;17.23;9.52;;;;;;;;;;5050017;28;20049;-64
2023/03/20 10:44:54;;;;;;;;;;;;;;;;;;5032946;28;20037;-62
2023/03/20 10:47:22;;;;;;;14.65;8.70;;;;;;;;;;5050046;28;19920;-65
2023/03/20 10:49:51;;;;;;;18.42;10.02;;;;;;;;;;5050279;28;20041;-64
2023/03/20 10:52:20;;;;;;;19.85;9.40;;;;;;;;;;5033559;28;20052;-63
2023/03/20 10:54:47;;;;;;;21.02;10.05;;;;;;;;;;5048938;28;20086;-64
2023/03/20 10:57:17;;;;;;;14.50;8.60;;;;;;;;;;5045690;28;20043;-64
2023/03/20 10:59:44;;;;;;;13.13;8.52;;;;;;;;;;5045478;28;20112;-66
2023/03/20 11:02:11;;;;;;;20.98;9.48;;;;;;;;;;5050067;28;20040;-64
2023/03/20 11:04:38;;;;;;;18.88;9.15;;;;;;;;;;5051290;28;20102;-64
2023/03/20 11:07:15;;;;;;;18.35;8.40;;;;;;;;;;5042648;28;20063;-64
2023/03/20 11:09:41;;;;;;;17.95;8.38;;;;;;;;;;5042858;28;20044;-64
2023/03/20 11:12:16;;;;;;;14.25;8.40;;;;;;;;;;5050597;28;20379;-64
2023/03/20 11:14:43;;;;;;;18.02;8.50;;;;;;;;;;5050233;28;20044;-61
2023/03/20 11:17:10;;;;;;;18.20;8.75;;;;;;;;;;5049881;28;20099;-61
2023/03/20 11:19:37;;;;;;;17.83;8.23;;;;;;;;;;5050254;28;20384;-61
2023/03/20 11:22:08;;;;;;;16.52;7.75;;;;;;;;;;5045605;28;20126;-61
2023/03/20 11:24:47;;;;;;;13.68;6.57;;;;;;;;;;5049783;28;20041;-61
2023/03/20 11:27:40;;;;;;;13.02;7.15;;;;;;;;;;5050592;28;20044;-60
2023/03/20 11:30:07;;;;;;;11.88;6.82;;;;;;;;;;5042795;28;20057;-60
2023/03/20 11:32:34;;;;;;;12.93;7.05;;;;;;;;;;5049092;28;20051;-60
2023/03/20 11:35:21;;;;;;;13.65;6.72;;;;;;;;;;5051091;28;20765;-61
2023/03/20 11:37:49;;;;;;;20.10;7.05;;;;;;;;;;5042903;28;20122;-61
2023/03/20 11:40:16;;;;;;;19.60;7.32;;;;;;;;;;5048969;28;20111;-60
2023/03/20 11:42:57;;;;;;;14.18;6.97;;;;;;;;;;5050741;28;20041;-60
2023/03/20 11:45:24;;;;;;;14.23;6.20;;;;;;;;;;5049020;28;20045;-60
2023/03/20 11:47:51;;;;;;;13.05;6.25;;;;;;;;;;5050099;28;20041;-60
2023/03/20 11:50:33;;;;;;;11.95;6.13;;;;;;;;;;5049524;28;20045;-60
2023/03/20 11:53:00;;;;;;;11.93;5.40;;;;;;;;;;5044347;28;20029;-60
2023/03/20 11:55:34;;;;;;;14.43;5.28;;;;;;;;;;5050516;28;20037;-60
2023/03/20 11:58:03;;;;;;;10.65;4.60;;;;;;;;;;5049695;28;20045;-60
2023/03/20 12:00:34;;;;;;;10.52;4.80;;;;;;;;;;5048689;28;20155;-61
2023/03/20 12:03:01;;;;;;;12.85;4.60;;;;;;;;;;5050231;28;20049;-60
2023/03/20 12:05:38;;;;;;;12.05;4.38;;;;;;;;;;5049899;28;20836;-61
2023/03/20 12:08:08;;;;;;;10.82;3.90;;;;;;;;;;5048583;28;20055;-60
2023/03/20 12:10:38;;;;;;;11.98;4.63;;;;;;;;;;5049582;28;20052;-60
2023/03/20 12:13:11;;;;;;;10.77;4.13;;;;;;;;;;5047255;28;20048;-62
2023/03/20 12:15:40;;;;;;;8.93;3.83;;;;;;;;;;5049020;28;20045;-62
2023/03/20 12:18:15;;;;;;;7.53;3.58;;;;;;;;;;5048832;28;20678;-65
2023/03/20 12:20:47;;;;;;;7.85;3.40;;;;;;;;;;5047623;28;20044;-65
2023/03/20 12:23:33;;;;;;;10.68;3.70;;;;;;;;;;5049220;28;20508;-63
2023/03/20 12:26:11;;;;;;;10.85;4.55;;;;;;;;;;5033720;28;20490;-63
2023/03/20 12:28:47;;;;;;;8.95;4.75;;;;;;;;;;5048212;28;20098;-65
2023/03/20 12:31:13;;;;;;;13.60;5.13;;;;;;;;;;5042950;28;20573;-63
2023/03/20 12:33:42;;;;;;;12.02;4.43;;;;;;;;;;5048557;28;20033;-63
2023/03/20 12:36:16;;;;;;;10.55;5.07;;;;;;;;;;5053153;28;20093;-62
2023/03/20 12:38:43;;;;;;;7.38;4.00;;;;;;;;;;5041277;28;20515;-64
2023/03/20 12:41:19;;;;;;;11.27;4.78;;;;;;;;;;5051280;28;20040;-62
2023/03/20 12:43:51;;;;;;;8.65;4.32;;;;;;;;;;5049195;28;20049;-64
2023/03/20 12:46:30;;;;;;;11.02;4.35;;;;;;;;;;5046386;28;20082;-62
2023/03/20 12:49:00;;;;;;;10.77;4.35;;;;;;;;;;5047931;28;20056;-62
2023/03/20 12:51:35;;;;;;;8.90;4.53;;;;;;;;;;5048284;28;20056;-64
2023/03/20 12:54:05;;;;;;;15.13;5.32;;;;;;;;;;5049506;28;20037;-63
2023/03/20 12:56:31;;;;;;;12.68;4.93;;;;;;;;;;5049019;28;20044;-62
2023/03/20 12:59:05;;;;;;;12.90;5.35;;;;;;;;;;5047103;28;20041;-62
2023/03/20 13:01:47;;;;;;;8.95;4.78;;;;;;;;;;5048913;28;20052;-63
2023/03/20 13:04:27;;;;;;;14.43;5.22;;;;;;;;;;5048757;28;20051;-63
2023/03/20 13:07:00;;;;;;;10.18;5.22;;;;;;;;;;5043576;28;20035;-61
2023/03/20 13:09:26;;;;;;;9.77;4.43;;;;;;;;;;5044570;28;20087;-63
2023/03/20 13:11:59;;;;;;;10.88;4.20;;;;;;;;;;5048478;28;20048;-62
2023/03/20 13:14:34;;;;;;;12.23;4.10;;;;;;;;;;5043753;28;20680;-62
2023/03/20 13:17:12;;;;;;;8.57;4.75;;;;;;;;;;5049072;28;20196;-62
2023/03/20 13:19:57;;;;;;;11.82;4.82;;;;;;;;;;5042655;28;20033;-62
2023/03/20 13:22:23;;;;;;;14.45;4.93;;;;;;;;;;5042530;28;20057;-62
2023/03/20 13:24:50;;;;;;;11.20;5.18;;;;;;;;;;5048918;28;20045;-64
2023/03/20 13:27:19;;;;;;;8.57;4.63;;;;;;;;;;5048883;28;20120;-63
2023/03/20 13:29:50;;;;;;;10.02;5.13;;;;;;;;;;5047271;28;20036;-63
2023/03/20 13:32:16;;;;;;;11.27;5.53;;;;;;;;;;5048686;28;20366;-63
2023/03/20 13:35:03;;;;;;;9.85;5.40;;;;;;;;;;5048599;28;20036;-61
2023/03/20 13:37:34;;;;;;;9.05;5.07;;;;;;;;;;5047745;28;20060;-63
2023/03/20 13:40:19;;;;;;;10.25;5.53;;;;;;;;;;5048157;28;20475;-62
2023/03/20 13:42:57;;;;;;;8.10;6.10;;;;;;;;;;5045433;28;20048;-62
2023/03/20 13:45:26;;;;;;;10.27;5.47;;;;;;;;;;5047782;28;20052;-63
2023/03/20 13:47:52;;;;;;;14.70;5.97;;;;;;;;;;5041161;28;20040;-64
2023/03/20 13:50:37;;;;;;;10.13;5.22;;;;;;;;;;5047057;28;20102;-62
2023/03/20 13:53:08;;;;;;;10.80;5.28;;;;;;;;;;5047743;28;20068;-62
2023/03/20 13:56:03;;;;;;;8.27;4.82;;;;;;;;;;5048172;28;20041;-63
2023/03/20 13:58:40;;;;;;;9.85;5.20;;;;;;;;;;5037345;28;20103;-63
2023/03/20 14:01:25;;;;;;;12.32;5.75;;;;;;;;;;5047872;28;20426;-65
2023/03/20 14:03:53;;;;;;;9.68;5.70;;;;;;;;;;5051457;28;20055;-63
2023/03/20 14:06:39;;;;;;;10.30;6.32;;;;;;;;;;5050868;28;20156;-62
2023/03/20 14:09:23;;;;;;;8.98;5.72;;;;;;;;;;5051711;28;20057;-65
2023/03/20 14:11:52;;;;;;;10.15;5.72;;;;;;;;;;5050452;28;20047;-63
2023/03/20 14:14:31;;;;;;;10.88;6.50;;;;;;;;;;5046516;28;20403;-63
2023/03/20 14:17:08;;;;;;;12.52;6.40;;;;;;;;;;5050200;28;20040;-62
2023/03/20 14:19:36;;;;;;;8.95;6.90;;;;;;;;;;5052746;28;20126;-62
2023/03/20 14:22:02;;;;;;;10.82;6.50;;;;;;;;;;5050358;28;20482;-64
2023/03/20 14:24:28;;;;;;;11.77;7.60;;;;;;;;;;5051500;28;20092;-63
2023/03/20 14:26:56;;;;;;;14.38;6.55;;;;;;;;;;5051551;28;20048;-63
2023/03/20 14:29:29;;;;;;;15.40;7.18;;;;;;;;;;5050772;28;20373;-63
2023/03/20 14:32:05;;;;;;;17.00;7.75;;;;;;;;;;5044892;28;20045;-62
2023/03/20 14:34:45;;;;;;;14.02;6.97;;;;;;;;;;5051299;28;20041;-61
2023/03/20 14:37:35;;;;;;;13.63;7.63;;;;;;;;;;5051052;28;20128;-62
2023/03/20 14:40:01;;;;;;;10.90;7.78;;;;;;;;;;5048295;28;20036;-63
2023/03/20 14:42:39;;;;;;;16.35;7.18;;;;;;;;;;5050810;28;20523;-64
2023/03/20 14:45:21;;;;;;;11.52;7.30;;;;;;;;;;5046885;28;20076;-64